»·PEaware :: PH-KIM KFUL-KGCN

PH-KIM :: KFUL-KGCN

FLIGHT INFORMATION

Flight Status: Arrived
Operator: Privately registered:
Netherlands
More flights under this callsign
Pilot: Kim B. (19519)
Aircraft: ECLIPSE 500
(EA50)
More flights by this aircraft type
Origin: KFUL Fullerton Mun
United States
Destination: KGCN Grand Canyon Natl Park
United States
More flights between these airports :: More routes between these airports
Route: +SLI POM DAG PGS SAVRE
File this flight plan on PilotEdge
Remarks:
Altitude:
(Current/Filed)
25,000ft
Speed:
(Current/Filed)
250kts
Departed: 23-Sep-18 03:37 PM
Arrived: 23-Sep-18 05:00 PM
Distance/Time
Traveled:
314nm/1:23
Distance/Time
To Go:
Arrived

Flight Plot

Page will automatically refresh every two minutes.

Flight plan parsing failed; only flown route is shown


Map Options




Map Legend


Flown Route
Filed Route
Departure Airport
Arrival Airport
Navaid (VOR, NDB)
Fix

Horizontal Profiles

Position Reports

Time Latitude Longitude Heading Altitude Ground
Speed
23-Sep-18 14:59 34.086037 -118.033313 24 295ft 0kts
23-Sep-18 15:00 34.086037 -118.033313 24 295ft 0kts
23-Sep-18 15:01 34.086037 -118.033313 24 295ft 0kts
23-Sep-18 15:02 34.086037 -118.033313 24 295ft 0kts
23-Sep-18 15:03 34.086037 -118.033313 24 295ft 0kts
23-Sep-18 15:04 34.086037 -118.033313 24 295ft 0kts
23-Sep-18 15:05 34.086037 -118.033313 24 295ft 0kts
23-Sep-18 15:06 34.086037 -118.033313 24 295ft 0kts
23-Sep-18 15:07 34.086037 -118.033313 24 295ft 0kts
23-Sep-18 15:08 34.086037 -118.033313 24 295ft 0kts
23-Sep-18 15:09 34.086037 -118.033313 24 295ft 0kts
23-Sep-18 15:10 34.086037 -118.033313 24 295ft 0kts
23-Sep-18 15:11 34.086037 -118.033313 24 295ft 0kts
23-Sep-18 15:12 34.086037 -118.033313 24 295ft 0kts
23-Sep-18 15:13 34.086037 -118.033313 24 295ft 0kts
23-Sep-18 15:14 34.086037 -118.033313 24 295ft 0kts
23-Sep-18 15:15 34.086037 -118.033313 24 295ft 0kts
23-Sep-18 15:16 34.086037 -118.033313 24 295ft 0kts
23-Sep-18 15:17 34.086037 -118.033313 24 295ft 0kts
23-Sep-18 15:18 34.086037 -118.033313 24 295ft 0kts
23-Sep-18 15:19 34.086037 -118.033313 24 295ft 0kts
23-Sep-18 15:20 34.086037 -118.033313 24 295ft 0kts
23-Sep-18 15:21 34.086037 -118.033313 24 295ft 0kts
23-Sep-18 15:22 34.086037 -118.033313 24 295ft 0kts
23-Sep-18 15:23 34.086037 -118.033313 24 295ft 0kts
23-Sep-18 15:24 34.086037 -118.033313 24 295ft 0kts
23-Sep-18 15:26 33.871164 -117.978163 259 94ft 0kts
23-Sep-18 15:27 33.871164 -117.978163 259 94ft 0kts
23-Sep-18 15:28 33.871164 -117.978163 259 94ft 0kts
23-Sep-18 15:29 33.871164 -117.978163 259 94ft 0kts
23-Sep-18 15:30 33.871164 -117.978163 259 94ft 0kts
23-Sep-18 15:31 33.871164 -117.978163 259 94ft 0kts
23-Sep-18 15:32 33.871164 -117.978163 259 94ft 0kts
23-Sep-18 15:33 33.871164 -117.978163 259 94ft 0kts
23-Sep-18 15:34 33.871164 -117.978163 259 94ft 0kts
23-Sep-18 15:35 33.871164 -117.978163 259 94ft 0kts
23-Sep-18 15:36 33.872005 -117.977786 78 94ft 8kts
23-Sep-18 15:37 33.872487 -117.975227 78 94ft 0kts
23-Sep-18 15:38 33.872597 -117.974844 32 94ft 0kts
23-Sep-18 15:39 33.872174 -117.978951 256 94ft 83kts
23-Sep-18 15:40 33.833294 -117.991080 138 903ft 276kts
23-Sep-18 15:41 33.781407 -117.918048 131 2011ft 290kts
23-Sep-18 15:42 33.729018 -117.844475 131 2032ft 281kts
23-Sep-18 15:43 33.682366 -117.779008 131 1987ft 242kts
23-Sep-18 15:44 33.640043 -117.719270 131 1988ft 231kts
23-Sep-18 15:45 33.593078 -117.714371 253 2363ft 221kts
23-Sep-18 15:46 33.578458 -117.790594 256 3279ft 245kts
23-Sep-18 15:47 33.563317 -117.871777 256 4183ft 253kts
23-Sep-18 15:48 33.549024 -117.953576 261 5132ft 265kts
23-Sep-18 15:49 33.540440 -118.042352 261 6356ft 269kts
23-Sep-18 15:50 33.556174 -118.126072 330 7809ft 295kts
23-Sep-18 15:51 33.634030 -118.104492 14 9275ft 303kts
23-Sep-18 15:52 33.714945 -118.078224 16 10775ft 302kts
23-Sep-18 15:53 33.792231 -118.043797 36 12266ft 299kts
23-Sep-18 15:54 33.859333 -117.985216 38 13768ft 301kts
23-Sep-18 15:55 33.926026 -117.925360 39 15463ft 299kts
23-Sep-18 15:56 33.991329 -117.866223 39 17158ft 296kts
23-Sep-18 15:57 34.056648 -117.806836 39 18881ft 292kts
23-Sep-18 15:58 34.112958 -117.739789 50 20583ft 283kts
23-Sep-18 15:59 34.164758 -117.670537 50 22251ft 277kts
23-Sep-18 16:00 34.210738 -117.608602 50 23534ft 285kts
23-Sep-18 16:01 34.264082 -117.536513 50 24833ft 290kts
23-Sep-18 16:02 34.317881 -117.463622 49 26131ft 293kts
23-Sep-18 16:03 34.371557 -117.390732 49 27430ft 292kts
23-Sep-18 16:04 34.424498 -117.318696 49 28711ft 289kts
23-Sep-18 16:05 34.477149 -117.246887 48 29989ft 282kts
23-Sep-18 16:06 34.528057 -117.177320 47 31177ft 275kts
23-Sep-18 16:07 34.577908 -117.109066 47 32255ft 270kts
23-Sep-18 16:08 34.626393 -117.042533 46 33330ft 261kts
23-Sep-18 16:09 34.673336 -116.978029 45 34277ft 251kts
23-Sep-18 16:10 34.718908 -116.915368 45 34906ft 255kts
23-Sep-18 16:11 34.769279 -116.845984 45 34898ft 293kts
23-Sep-18 16:12 34.825482 -116.768301 46 34897ft 325kts
23-Sep-18 16:13 34.886579 -116.683621 46 34896ft 342kts
23-Sep-18 16:14 34.949438 -116.596093 48 34897ft 355kts
23-Sep-18 16:15 34.983575 -116.482576 74 34910ft 358kts
23-Sep-18 16:16 35.010863 -116.368138 75 34928ft 350kts
23-Sep-18 16:17 35.036915 -116.255726 75 34927ft 347kts
23-Sep-18 16:18 35.062897 -116.142463 75 34928ft 348kts
23-Sep-18 16:19 35.088866 -116.028577 75 34929ft 348kts
23-Sep-18 16:20 35.114270 -115.916615 75 34925ft 348kts
23-Sep-18 16:21 35.139933 -115.802966 75 34925ft 348kts
23-Sep-18 16:22 35.165635 -115.688601 75 34919ft 348kts
23-Sep-18 16:23 35.191064 -115.574902 75 34909ft 348kts
23-Sep-18 16:24 35.216493 -115.460653 75 34912ft 348kts
23-Sep-18 16:25 35.241739 -115.346684 76 34885ft 348kts
23-Sep-18 16:26 35.266747 -115.233071 75 34829ft 349kts
23-Sep-18 16:27 35.291886 -115.118581 75 34816ft 350kts
23-Sep-18 16:28 35.317044 -115.003353 75 34791ft 351kts
23-Sep-18 16:29 35.342019 -114.888357 75 34771ft 351kts
23-Sep-18 16:30 35.366966 -114.772915 76 34773ft 351kts
23-Sep-18 16:31 35.391726 -114.657747 75 34450ft 356kts
23-Sep-18 16:32 35.415841 -114.545111 76 33297ft 342kts
23-Sep-18 16:33 35.439582 -114.433633 76 32129ft 335kts
23-Sep-18 16:34 35.462646 -114.324827 77 30836ft 327kts
23-Sep-18 16:35 35.484999 -114.218805 77 29417ft 317kts
23-Sep-18 16:36 35.506611 -114.115826 78 28008ft 308kts
23-Sep-18 16:37 35.527621 -114.015259 78 26601ft 300kts
23-Sep-18 16:38 35.547935 -113.917593 78 25196ft 291kts
23-Sep-18 16:39 35.567011 -113.825484 78 23845ft 284kts
23-Sep-18 16:40 35.586092 -113.732955 78 22455ft 276kts
23-Sep-18 16:41 35.604520 -113.643235 78 21071ft 268kts
23-Sep-18 16:42 35.622419 -113.555625 79 19688ft 264kts
23-Sep-18 16:43 35.629648 -113.467328 88 18309ft 257kts
23-Sep-18 16:44 35.635399 -113.383980 88 17056ft 251kts
23-Sep-18 16:45 35.640267 -113.311358 89 15942ft 245kts
23-Sep-18 16:46 35.645608 -113.230296 89 14658ft 238kts
23-Sep-18 16:47 35.650811 -113.150242 89 13357ft 232kts
23-Sep-18 16:48 35.655800 -113.072601 88 12060ft 225kts
23-Sep-18 16:49 35.660644 -112.996467 88 10760ft 222kts
23-Sep-18 16:50 35.665441 -112.919759 87 9483ft 243kts
23-Sep-18 16:51 35.670490 -112.838852 87 9015ft 249kts
23-Sep-18 16:52 35.675730 -112.754152 87 9018ft 248kts
23-Sep-18 16:53 35.680914 -112.669308 87 9019ft 248kts
23-Sep-18 16:54 35.686018 -112.584647 87 9019ft 249kts
23-Sep-18 16:55 35.691065 -112.499856 87 9020ft 248kts
23-Sep-18 16:56 35.701715 -112.417936 47 9016ft 250kts
23-Sep-18 16:57 35.752489 -112.359722 40 9020ft 249kts
23-Sep-18 16:58 35.804428 -112.303550 40 9016ft 241kts
23-Sep-18 16:59 35.852703 -112.252094 39 8599ft 234kts
23-Sep-18 17:00 35.896956 -112.205429 39 7768ft 212kts
23-Sep-18 17:01 35.932771 -112.167623 39 6848ft 150kts
23-Sep-18 17:02 35.951735 -112.145145 161 6597ft 0kts
23-Sep-18 17:03 35.951613 -112.145862 273 6593ft 16kts
23-Sep-18 17:04 35.951772 -112.146149 15 6591ft 0kts
23-Sep-18 17:05 35.952987 -112.144464 40 6599ft 17kts
23-Sep-18 17:06 35.955498 -112.141801 40 6610ft 13kts
23-Sep-18 17:07 35.958713 -112.138391 41 6620ft 9kts
23-Sep-18 17:08 35.960674 -112.135951 44 6625ft 4kts
23-Sep-18 17:09 35.961292 -112.135042 137 6625ft 2kts
23-Sep-18 17:10 35.960741 -112.135710 219 6626ft 0kts
23-Sep-18 17:11 35.960721 -112.135731 220 6626ft 0kts
23-Sep-18 17:12 35.960721 -112.135731 220 6626ft 0kts
23-Sep-18 17:13 35.960721 -112.135731 220 6626ft 0kts
23-Sep-18 17:14 35.960722 -112.135731 220 6626ft 0kts
23-Sep-18 17:15 35.960722 -112.135731 220 6626ft 0kts
23-Sep-18 17:16 35.960722 -112.135731 220 6626ft 0kts

Navigation Log

Ident Type
Flight plan parsing failed, navigation log unavailable